sensor_id;sensor_type;location;lat;lon;timestamp;P1;durP1;ratioP1;P2;durP2;ratioP2
49948;SDS011;35840;45.982;8.890;2022-11-14T00:02:32;19.60;;;11.60;;
49948;SDS011;35840;45.982;8.890;2022-11-14T00:05:17;17.70;;;12.85;;
49948;SDS011;35840;45.982;8.890;2022-11-14T00:10:49;16.92;;;11.85;;
49948;SDS011;35840;45.982;8.890;2022-11-14T00:13:35;16.45;;;12.18;;
49948;SDS011;35840;45.982;8.890;2022-11-14T00:16:20;17.05;;;12.38;;
49948;SDS011;35840;45.982;8.890;2022-11-14T00:19:05;19.30;;;12.73;;
49948;SDS011;35840;45.982;8.890;2022-11-14T00:21:51;18.73;;;12.50;;
49948;SDS011;35840;45.982;8.890;2022-11-14T00:24:37;18.20;;;12.95;;
49948;SDS011;35840;45.982;8.890;2022-11-14T00:27:22;16.58;;;11.65;;
49948;SDS011;35840;45.982;8.890;2022-11-14T00:30:08;16.23;;;12.10;;
49948;SDS011;35840;45.982;8.890;2022-11-14T00:32:53;19.13;;;13.43;;
49948;SDS011;35840;45.982;8.890;2022-11-14T00:35:39;19.13;;;12.27;;
49948;SDS011;35840;45.982;8.890;2022-11-14T00:38:24;19.88;;;13.52;;
49948;SDS011;35840;45.982;8.890;2022-11-14T00:41:09;18.67;;;13.15;;
49948;SDS011;35840;45.982;8.890;2022-11-14T00:43:55;15.52;;;12.20;;
49948;SDS011;35840;45.982;8.890;2022-11-14T00:46:40;20.20;;;12.60;;
49948;SDS011;35840;45.982;8.890;2022-11-14T00:49:25;18.83;;;12.57;;
49948;SDS011;35840;45.982;8.890;2022-11-14T00:52:11;16.88;;;11.60;;
49948;SDS011;35840;45.982;8.890;2022-11-14T00:54:56;17.85;;;12.45;;
49948;SDS011;35840;45.982;8.890;2022-11-14T00:57:41;16.58;;;12.15;;
49948;SDS011;35840;45.982;8.890;2022-11-14T01:00:27;18.55;;;13.10;;
49948;SDS011;35840;45.982;8.890;2022-11-14T01:03:12;19.17;;;12.38;;
49948;SDS011;35840;45.982;8.890;2022-11-14T01:06:01;19.90;;;13.90;;
49948;SDS011;35840;45.982;8.890;2022-11-14T01:08:49;17.15;;;12.05;;
49948;SDS011;35840;45.982;8.890;2022-11-14T01:11:35;18.85;;;12.55;;
49948;SDS011;35840;45.982;8.890;2022-11-14T01:14:20;21.47;;;13.03;;
49948;SDS011;35840;45.982;8.890;2022-11-14T01:17:06;22.20;;;13.37;;
49948;SDS011;35840;45.982;8.890;2022-11-14T01:19:51;16.08;;;11.23;;
49948;SDS011;35840;45.982;8.890;2022-11-14T01:22:36;14.13;;;10.43;;
49948;SDS011;35840;45.982;8.890;2022-11-14T01:25:21;19.52;;;12.40;;
49948;SDS011;35840;45.982;8.890;2022-11-14T01:28:07;18.90;;;13.23;;
49948;SDS011;35840;45.982;8.890;2022-11-14T01:30:55;19.65;;;12.77;;
49948;SDS011;35840;45.982;8.890;2022-11-14T01:33:40;17.50;;;12.85;;
49948;SDS011;35840;45.982;8.890;2022-11-14T01:36:26;18.35;;;12.13;;
49948;SDS011;35840;45.982;8.890;2022-11-14T01:39:11;18.45;;;12.02;;
49948;SDS011;35840;45.982;8.890;2022-11-14T01:41:56;15.77;;;9.85;;
49948;SDS011;35840;45.982;8.890;2022-11-14T01:47:36;15.43;;;10.80;;
49948;SDS011;35840;45.982;8.890;2022-11-14T01:50:21;15.57;;;11.98;;
49948;SDS011;35840;45.982;8.890;2022-11-14T01:53:06;15.77;;;11.15;;
49948;SDS011;35840;45.982;8.890;2022-11-14T01:55:52;18.20;;;11.53;;
49948;SDS011;35840;45.982;8.890;2022-11-14T01:58:43;14.73;;;10.48;;
49948;SDS011;35840;45.982;8.890;2022-11-14T02:01:34;15.98;;;10.85;;
49948;SDS011;35840;45.982;8.890;2022-11-14T02:04:25;14.43;;;10.43;;
49948;SDS011;35840;45.982;8.890;2022-11-14T02:07:14;13.68;;;10.05;;
49948;SDS011;35840;45.982;8.890;2022-11-14T02:10:03;13.82;;;9.38;;
49948;SDS011;35840;45.982;8.890;2022-11-14T02:12:59;17.30;;;9.50;;
49948;SDS011;35840;45.982;8.890;2022-11-14T02:15:44;13.45;;;9.25;;
49948;SDS011;35840;45.982;8.890;2022-11-14T02:18:29;12.37;;;9.30;;
49948;SDS011;35840;45.982;8.890;2022-11-14T02:21:15;12.80;;;9.07;;
49948;SDS011;35840;45.982;8.890;2022-11-14T02:24:00;14.25;;;8.73;;
49948;SDS011;35840;45.982;8.890;2022-11-14T02:26:46;14.40;;;8.57;;
49948;SDS011;35840;45.982;8.890;2022-11-14T02:29:32;11.80;;;8.27;;
49948;SDS011;35840;45.982;8.890;2022-11-14T02:32:19;10.52;;;7.57;;
49948;SDS011;35840;45.982;8.890;2022-11-14T02:35:04;13.43;;;8.43;;
49948;SDS011;35840;45.982;8.890;2022-11-14T02:37:50;14.55;;;9.23;;
49948;SDS011;35840;45.982;8.890;2022-11-14T02:40:35;11.88;;;9.07;;
49948;SDS011;35840;45.982;8.890;2022-11-14T02:43:20;12.95;;;9.15;;
49948;SDS011;35840;45.982;8.890;2022-11-14T02:46:06;16.05;;;10.30;;
49948;SDS011;35840;45.982;8.890;2022-11-14T02:48:51;15.35;;;9.43;;
49948;SDS011;35840;45.982;8.890;2022-11-14T02:51:36;15.48;;;10.30;;
49948;SDS011;35840;45.982;8.890;2022-11-14T02:54:22;12.85;;;8.98;;
49948;SDS011;35840;45.982;8.890;2022-11-14T02:57:07;16.27;;;9.88;;
49948;SDS011;35840;45.982;8.890;2022-11-14T02:59:52;15.07;;;9.88;;
49948;SDS011;35840;45.982;8.890;2022-11-14T03:02:38;15.85;;;8.60;;
49948;SDS011;35840;45.982;8.890;2022-11-14T03:05:23;13.07;;;10.10;;
49948;SDS011;35840;45.982;8.890;2022-11-14T03:08:08;13.25;;;8.45;;
49948;SDS011;35840;45.982;8.890;2022-11-14T03:10:54;13.60;;;8.37;;
49948;SDS011;35840;45.982;8.890;2022-11-14T03:13:39;14.35;;;9.07;;
49948;SDS011;35840;45.982;8.890;2022-11-14T03:16:24;10.63;;;7.80;;
49948;SDS011;35840;45.982;8.890;2022-11-14T03:19:10;12.18;;;8.48;;
49948;SDS011;35840;45.982;8.890;2022-11-14T03:21:55;11.93;;;8.18;;
49948;SDS011;35840;45.982;8.890;2022-11-14T03:24:41;11.15;;;7.63;;
49948;SDS011;35840;45.982;8.890;2022-11-14T03:27:26;10.80;;;7.80;;
49948;SDS011;35840;45.982;8.890;2022-11-14T03:30:12;9.43;;;6.85;;
49948;SDS011;35840;45.982;8.890;2022-11-14T03:32:58;9.75;;;7.72;;
49948;SDS011;35840;45.982;8.890;2022-11-14T03:35:43;13.93;;;8.27;;
49948;SDS011;35840;45.982;8.890;2022-11-14T03:38:29;12.85;;;8.52;;
49948;SDS011;35840;45.982;8.890;2022-11-14T03:41:16;11.95;;;7.65;;
49948;SDS011;35840;45.982;8.890;2022-11-14T03:44:01;11.63;;;8.73;;
49948;SDS011;35840;45.982;8.890;2022-11-14T03:46:46;11.70;;;8.65;;
49948;SDS011;35840;45.982;8.890;2022-11-14T03:49:32;11.50;;;8.27;;
49948;SDS011;35840;45.982;8.890;2022-11-14T03:52:17;16.50;;;10.20;;
49948;SDS011;35840;45.982;8.890;2022-11-14T03:55:03;13.98;;;9.07;;
49948;SDS011;35840;45.982;8.890;2022-11-14T03:57:48;13.23;;;9.77;;
49948;SDS011;35840;45.982;8.890;2022-11-14T04:00:33;18.48;;;10.20;;
49948;SDS011;35840;45.982;8.890;2022-11-14T04:03:19;14.23;;;9.53;;
49948;SDS011;35840;45.982;8.890;2022-11-14T04:06:04;12.43;;;8.93;;
49948;SDS011;35840;45.982;8.890;2022-11-14T04:08:49;12.07;;;8.57;;
49948;SDS011;35840;45.982;8.890;2022-11-14T04:11:35;15.23;;;9.80;;
49948;SDS011;35840;45.982;8.890;2022-11-14T04:14:21;14.68;;;9.40;;
49948;SDS011;35840;45.982;8.890;2022-11-14T04:17:06;12.75;;;10.20;;
49948;SDS011;35840;45.982;8.890;2022-11-14T04:19:51;12.60;;;9.60;;
49948;SDS011;35840;45.982;8.890;2022-11-14T04:22:37;12.70;;;9.05;;
49948;SDS011;35840;45.982;8.890;2022-11-14T04:25:22;12.82;;;9.23;;
49948;SDS011;35840;45.982;8.890;2022-11-14T04:28:07;13.38;;;9.05;;
49948;SDS011;35840;45.982;8.890;2022-11-14T04:30:53;12.52;;;9.75;;
49948;SDS011;35840;45.982;8.890;2022-11-14T04:33:38;13.38;;;8.52;;
49948;SDS011;35840;45.982;8.890;2022-11-14T04:36:23;13.37;;;9.23;;
49948;SDS011;35840;45.982;8.890;2022-11-14T04:39:09;13.95;;;9.07;;
49948;SDS011;35840;45.982;8.890;2022-11-14T04:41:54;10.00;;;8.50;;
49948;SDS011;35840;45.982;8.890;2022-11-14T04:44:39;10.52;;;8.38;;
49948;SDS011;35840;45.982;8.890;2022-11-14T04:47:25;11.55;;;7.93;;
49948;SDS011;35840;45.982;8.890;2022-11-14T04:50:10;13.02;;;8.63;;
49948;SDS011;35840;45.982;8.890;2022-11-14T04:52:55;12.07;;;8.17;;
49948;SDS011;35840;45.982;8.890;2022-11-14T04:55:42;12.40;;;8.77;;
49948;SDS011;35840;45.982;8.890;2022-11-14T04:58:28;10.85;;;8.70;;
49948;SDS011;35840;45.982;8.890;2022-11-14T05:01:14;11.45;;;7.65;;
49948;SDS011;35840;45.982;8.890;2022-11-14T05:03:59;10.38;;;7.80;;
49948;SDS011;35840;45.982;8.890;2022-11-14T05:06:45;14.15;;;9.18;;
49948;SDS011;35840;45.982;8.890;2022-11-14T05:09:30;12.30;;;8.40;;
49948;SDS011;35840;45.982;8.890;2022-11-14T05:12:15;11.55;;;8.57;;
49948;SDS011;35840;45.982;8.890;2022-11-14T05:15:01;10.48;;;8.23;;
49948;SDS011;35840;45.982;8.890;2022-11-14T05:17:46;13.18;;;9.15;;
49948;SDS011;35840;45.982;8.890;2022-11-14T05:20:31;11.30;;;8.45;;
49948;SDS011;35840;45.982;8.890;2022-11-14T05:23:18;10.63;;;7.97;;
49948;SDS011;35840;45.982;8.890;2022-11-14T05:26:05;11.52;;;7.70;;
49948;SDS011;35840;45.982;8.890;2022-11-14T05:28:52;11.90;;;8.68;;
49948;SDS011;35840;45.982;8.890;2022-11-14T05:31:37;10.95;;;9.18;;
49948;SDS011;35840;45.982;8.890;2022-11-14T05:34:23;10.88;;;8.30;;
49948;SDS011;35840;45.982;8.890;2022-11-14T05:37:09;10.10;;;8.50;;
49948;SDS011;35840;45.982;8.890;2022-11-14T05:39:54;13.00;;;9.35;;
49948;SDS011;35840;45.982;8.890;2022-11-14T05:42:40;12.75;;;8.98;;
49948;SDS011;35840;45.982;8.890;2022-11-14T05:45:25;14.40;;;9.05;;
49948;SDS011;35840;45.982;8.890;2022-11-14T05:48:10;12.65;;;9.02;;
49948;SDS011;35840;45.982;8.890;2022-11-14T05:50:56;10.40;;;8.15;;
49948;SDS011;35840;45.982;8.890;2022-11-14T05:53:45;10.82;;;8.02;;
49948;SDS011;35840;45.982;8.890;2022-11-14T05:56:31;11.05;;;8.68;;
49948;SDS011;35840;45.982;8.890;2022-11-14T05:59:16;11.43;;;8.63;;
49948;SDS011;35840;45.982;8.890;2022-11-14T06:02:01;13.10;;;9.18;;
49948;SDS011;35840;45.982;8.890;2022-11-14T06:04:47;11.38;;;8.20;;
49948;SDS011;35840;45.982;8.890;2022-11-14T06:07:32;12.63;;;9.38;;
49948;SDS011;35840;45.982;8.890;2022-11-14T06:10:18;12.82;;;8.90;;
49948;SDS011;35840;45.982;8.890;2022-11-14T06:13:03;13.65;;;9.27;;
49948;SDS011;35840;45.982;8.890;2022-11-14T06:15:49;12.52;;;8.80;;
49948;SDS011;35840;45.982;8.890;2022-11-14T06:18:35;12.10;;;8.48;;
49948;SDS011;35840;45.982;8.890;2022-11-14T06:21:21;10.65;;;8.10;;
49948;SDS011;35840;45.982;8.890;2022-11-14T06:24:08;11.23;;;8.50;;
49948;SDS011;35840;45.982;8.890;2022-11-14T06:26:53;9.50;;;7.95;;
49948;SDS011;35840;45.982;8.890;2022-11-14T06:29:38;9.80;;;8.20;;
49948;SDS011;35840;45.982;8.890;2022-11-14T06:32:23;12.17;;;8.10;;
49948;SDS011;35840;45.982;8.890;2022-11-14T06:35:09;10.23;;;7.90;;
49948;SDS011;35840;45.982;8.890;2022-11-14T06:37:54;10.87;;;7.90;;
49948;SDS011;35840;45.982;8.890;2022-11-14T06:40:39;11.32;;;7.85;;
49948;SDS011;35840;45.982;8.890;2022-11-14T06:43:24;9.52;;;7.72;;
49948;SDS011;35840;45.982;8.890;2022-11-14T06:46:11;9.75;;;7.57;;
49948;SDS011;35840;45.982;8.890;2022-11-14T06:48:58;13.55;;;7.45;;
49948;SDS011;35840;45.982;8.890;2022-11-14T06:51:43;10.57;;;8.30;;
49948;SDS011;35840;45.982;8.890;2022-11-14T06:54:29;8.98;;;7.18;;
49948;SDS011;35840;45.982;8.890;2022-11-14T06:57:14;11.83;;;8.23;;
49948;SDS011;35840;45.982;8.890;2022-11-14T06:59:59;9.77;;;7.30;;
49948;SDS011;35840;45.982;8.890;2022-11-14T07:02:45;10.60;;;7.15;;
49948;SDS011;35840;45.982;8.890;2022-11-14T07:05:31;9.80;;;7.10;;
49948;SDS011;35840;45.982;8.890;2022-11-14T07:08:16;13.38;;;8.07;;
49948;SDS011;35840;45.982;8.890;2022-11-14T07:11:09;8.80;;;6.93;;
49948;SDS011;35840;45.982;8.890;2022-11-14T07:13:59;9.77;;;7.13;;
49948;SDS011;35840;45.982;8.890;2022-11-14T07:16:44;11.27;;;7.20;;
49948;SDS011;35840;45.982;8.890;2022-11-14T07:19:30;9.60;;;7.63;;
49948;SDS011;35840;45.982;8.890;2022-11-14T07:22:15;13.07;;;6.97;;
49948;SDS011;35840;45.982;8.890;2022-11-14T07:25:01;7.50;;;6.38;;
49948;SDS011;35840;45.982;8.890;2022-11-14T07:27:46;11.23;;;6.23;;
49948;SDS011;35840;45.982;8.890;2022-11-14T07:30:34;9.53;;;6.83;;
49948;SDS011;35840;45.982;8.890;2022-11-14T07:33:20;9.75;;;6.80;;
49948;SDS011;35840;45.982;8.890;2022-11-14T07:36:05;10.73;;;7.75;;
49948;SDS011;35840;45.982;8.890;2022-11-14T07:38:51;14.43;;;7.68;;
49948;SDS011;35840;45.982;8.890;2022-11-14T07:41:36;8.88;;;7.25;;
49948;SDS011;35840;45.982;8.890;2022-11-14T07:44:21;10.38;;;6.97;;
49948;SDS011;35840;45.982;8.890;2022-11-14T07:47:07;11.15;;;7.85;;
49948;SDS011;35840;45.982;8.890;2022-11-14T07:49:52;9.23;;;6.97;;
49948;SDS011;35840;45.982;8.890;2022-11-14T07:52:37;9.10;;;6.70;;
49948;SDS011;35840;45.982;8.890;2022-11-14T07:55:23;9.60;;;7.15;;
49948;SDS011;35840;45.982;8.890;2022-11-14T07:58:08;10.68;;;6.72;;
49948;SDS011;35840;45.982;8.890;2022-11-14T08:00:54;12.73;;;7.35;;
49948;SDS011;35840;45.982;8.890;2022-11-14T08:03:39;10.13;;;7.55;;
49948;SDS011;35840;45.982;8.890;2022-11-14T08:06:29;11.95;;;7.65;;
49948;SDS011;35840;45.982;8.890;2022-11-14T08:09:15;13.23;;;9.00;;
49948;SDS011;35840;45.982;8.890;2022-11-14T08:12:00;11.73;;;8.57;;
49948;SDS011;35840;45.982;8.890;2022-11-14T08:14:45;13.13;;;8.85;;
49948;SDS011;35840;45.982;8.890;2022-11-14T08:17:31;11.17;;;8.17;;
49948;SDS011;35840;45.982;8.890;2022-11-14T08:20:16;13.38;;;7.95;;
49948;SDS011;35840;45.982;8.890;2022-11-14T08:23:02;14.43;;;9.50;;
49948;SDS011;35840;45.982;8.890;2022-11-14T08:25:50;12.63;;;9.18;;
49948;SDS011;35840;45.982;8.890;2022-11-14T08:28:35;12.30;;;9.18;;
49948;SDS011;35840;45.982;8.890;2022-11-14T08:31:21;15.30;;;9.45;;
49948;SDS011;35840;45.982;8.890;2022-11-14T08:36:54;15.63;;;9.38;;
49948;SDS011;35840;45.982;8.890;2022-11-14T08:39:41;14.38;;;9.40;;
49948;SDS011;35840;45.982;8.890;2022-11-14T08:42:26;14.75;;;9.57;;
49948;SDS011;35840;45.982;8.890;2022-11-14T08:45:12;14.30;;;9.82;;
49948;SDS011;35840;45.982;8.890;2022-11-14T08:47:58;13.38;;;9.73;;
49948;SDS011;35840;45.982;8.890;2022-11-14T08:50:43;13.85;;;10.15;;
49948;SDS011;35840;45.982;8.890;2022-11-14T08:53:28;13.50;;;9.35;;
49948;SDS011;35840;45.982;8.890;2022-11-14T08:56:14;14.35;;;10.02;;
49948;SDS011;35840;45.982;8.890;2022-11-14T08:59:02;12.75;;;8.55;;
49948;SDS011;35840;45.982;8.890;2022-11-14T09:01:47;10.75;;;8.80;;
49948;SDS011;35840;45.982;8.890;2022-11-14T09:04:33;12.63;;;9.23;;
49948;SDS011;35840;45.982;8.890;2022-11-14T09:07:18;13.48;;;9.43;;
49948;SDS011;35840;45.982;8.890;2022-11-14T09:10:04;14.18;;;9.60;;
49948;SDS011;35840;45.982;8.890;2022-11-14T09:15:45;11.52;;;8.93;;
49948;SDS011;35840;45.982;8.890;2022-11-14T09:18:31;12.48;;;9.82;;
49948;SDS011;35840;45.982;8.890;2022-11-14T09:21:16;12.32;;;9.13;;
49948;SDS011;35840;45.982;8.890;2022-11-14T09:24:02;12.60;;;9.45;;
49948;SDS011;35840;45.982;8.890;2022-11-14T09:26:49;12.45;;;8.43;;
49948;SDS011;35840;45.982;8.890;2022-11-14T09:29:41;11.40;;;7.90;;
49948;SDS011;35840;45.982;8.890;2022-11-14T09:32:26;12.50;;;9.32;;
49948;SDS011;35840;45.982;8.890;2022-11-14T09:35:12;9.98;;;7.45;;
49948;SDS011;35840;45.982;8.890;2022-11-14T09:38:02;11.45;;;8.35;;
49948;SDS011;35840;45.982;8.890;2022-11-14T09:47:10;9.73;;;7.43;;
49948;SDS011;35840;45.982;8.890;2022-11-14T09:50:06;10.38;;;7.47;;
49948;SDS011;35840;45.982;8.890;2022-11-14T09:52:56;10.40;;;8.18;;
49948;SDS011;35840;45.982;8.890;2022-11-14T09:55:42;10.27;;;7.97;;
49948;SDS011;35840;45.982;8.890;2022-11-14T09:58:28;9.93;;;8.30;;
49948;SDS011;35840;45.982;8.890;2022-11-14T10:13:14;12.02;;;7.45;;
49948;SDS011;35840;45.982;8.890;2022-11-14T10:16:03;9.40;;;7.22;;
49948;SDS011;35840;45.982;8.890;2022-11-14T10:19:02;9.52;;;7.38;;
49948;SDS011;35840;45.982;8.890;2022-11-14T10:37:59;10.70;;;8.30;;
49948;SDS011;35840;45.982;8.890;2022-11-14T10:40:52;10.80;;;7.68;;
49948;SDS011;35840;45.982;8.890;2022-11-14T10:43:48;13.02;;;8.63;;
49948;SDS011;35840;45.982;8.890;2022-11-14T10:46:39;12.38;;;9.05;;
49948;SDS011;35840;45.982;8.890;2022-11-14T10:49:30;10.40;;;7.85;;
49948;SDS011;35840;45.982;8.890;2022-11-14T10:52:21;11.13;;;8.10;;
49948;SDS011;35840;45.982;8.890;2022-11-14T10:55:15;11.07;;;7.78;;
49948;SDS011;35840;45.982;8.890;2022-11-14T10:58:07;9.60;;;7.70;;
49948;SDS011;35840;45.982;8.890;2022-11-14T11:01:30;10.00;;;7.60;;
49948;SDS011;35840;45.982;8.890;2022-11-14T11:10:19;9.60;;;6.80;;
49948;SDS011;35840;45.982;8.890;2022-11-14T11:13:28;9.15;;;6.68;;
49948;SDS011;35840;45.982;8.890;2022-11-14T11:16:19;9.65;;;6.65;;
49948;SDS011;35840;45.982;8.890;2022-11-14T11:19:14;7.40;;;6.38;;
49948;SDS011;35840;45.982;8.890;2022-11-14T11:22:22;8.45;;;6.80;;
49948;SDS011;35840;45.982;8.890;2022-11-14T11:25:26;7.65;;;6.38;;
49948;SDS011;35840;45.982;8.890;2022-11-14T11:28:14;8.75;;;5.65;;
49948;SDS011;35840;45.982;8.890;2022-11-14T11:33:51;7.45;;;6.13;;
49948;SDS011;35840;45.982;8.890;2022-11-14T11:36:38;7.30;;;5.90;;
49948;SDS011;35840;45.982;8.890;2022-11-14T11:39:29;6.65;;;5.70;;
49948;SDS011;35840;45.982;8.890;2022-11-14T11:42:19;7.03;;;6.15;;
49948;SDS011;35840;45.982;8.890;2022-11-14T11:45:16;6.60;;;5.43;;
49948;SDS011;35840;45.982;8.890;2022-11-14T11:51:02;7.43;;;5.50;;
49948;SDS011;35840;45.982;8.890;2022-11-14T11:53:54;6.32;;;5.07;;
49948;SDS011;35840;45.982;8.890;2022-11-14T11:56:45;6.40;;;5.45;;
49948;SDS011;35840;45.982;8.890;2022-11-14T11:59:45;6.68;;;5.32;;
49948;SDS011;35840;45.982;8.890;2022-11-14T12:02:35;7.82;;;5.78;;
49948;SDS011;35840;45.982;8.890;2022-11-14T12:11:31;6.35;;;5.03;;
49948;SDS011;35840;45.982;8.890;2022-11-14T12:26:32;6.75;;;5.57;;
49948;SDS011;35840;45.982;8.890;2022-11-14T12:32:10;6.35;;;4.90;;
49948;SDS011;35840;45.982;8.890;2022-11-14T12:35:02;6.70;;;5.55;;
49948;SDS011;35840;45.982;8.890;2022-11-14T12:37:52;5.78;;;4.68;;
49948;SDS011;35840;45.982;8.890;2022-11-14T12:40:41;6.18;;;5.18;;
49948;SDS011;35840;45.982;8.890;2022-11-14T12:43:34;6.78;;;5.47;;
49948;SDS011;35840;45.982;8.890;2022-11-14T12:46:22;6.32;;;4.97;;
49948;SDS011;35840;45.982;8.890;2022-11-14T12:58:10;8.53;;;5.90;;
49948;SDS011;35840;45.982;8.890;2022-11-14T13:01:10;7.63;;;5.40;;
49948;SDS011;35840;45.982;8.890;2022-11-14T13:07:02;9.52;;;7.47;;
49948;SDS011;35840;45.982;8.890;2022-11-14T13:13:14;11.90;;;6.80;;
49948;SDS011;35840;45.982;8.890;2022-11-14T13:16:24;9.68;;;7.07;;
49948;SDS011;35840;45.982;8.890;2022-11-14T13:19:32;9.52;;;7.22;;
49948;SDS011;35840;45.982;8.890;2022-11-14T13:22:40;10.95;;;7.70;;
49948;SDS011;35840;45.982;8.890;2022-11-14T13:25:25;12.10;;;8.10;;
49948;SDS011;35840;45.982;8.890;2022-11-14T13:34:56;7.72;;;6.03;;
49948;SDS011;35840;45.982;8.890;2022-11-14T13:43:28;7.65;;;6.03;;
49948;SDS011;35840;45.982;8.890;2022-11-14T13:52:46;7.45;;;5.32;;
49948;SDS011;35840;45.982;8.890;2022-11-14T14:17:03;7.65;;;5.18;;
49948;SDS011;35840;45.982;8.890;2022-11-14T14:33:01;5.25;;;4.30;;
49948;SDS011;35840;45.982;8.890;2022-11-14T14:35:52;4.15;;;3.75;;
49948;SDS011;35840;45.982;8.890;2022-11-14T14:38:37;4.43;;;3.95;;
49948;SDS011;35840;45.982;8.890;2022-11-14T14:41:22;4.90;;;3.60;;
49948;SDS011;35840;45.982;8.890;2022-11-14T14:44:14;4.93;;;3.88;;
49948;SDS011;35840;45.982;8.890;2022-11-14T14:47:24;4.40;;;3.60;;
49948;SDS011;35840;45.982;8.890;2022-11-14T14:50:25;10.82;;;5.75;;
49948;SDS011;35840;45.982;8.890;2022-11-14T14:53:20;5.45;;;3.92;;
49948;SDS011;35840;45.982;8.890;2022-11-14T14:56:18;6.30;;;3.85;;
49948;SDS011;35840;45.982;8.890;2022-11-14T14:59:15;4.72;;;3.55;;
49948;SDS011;35840;45.982;8.890;2022-11-14T15:02:02;6.40;;;4.45;;
49948;SDS011;35840;45.982;8.890;2022-11-14T15:04:47;4.93;;;4.15;;
49948;SDS011;35840;45.982;8.890;2022-11-14T15:07:33;5.28;;;4.07;;
49948;SDS011;35840;45.982;8.890;2022-11-14T15:10:24;4.55;;;3.88;;
49948;SDS011;35840;45.982;8.890;2022-11-14T15:13:14;4.03;;;3.45;;
49948;SDS011;35840;45.982;8.890;2022-11-14T15:16:02;4.68;;;3.72;;
49948;SDS011;35840;45.982;8.890;2022-11-14T15:18:49;7.63;;;4.45;;
49948;SDS011;35840;45.982;8.890;2022-11-14T15:21:36;4.65;;;3.60;;
49948;SDS011;35840;45.982;8.890;2022-11-14T15:24:21;3.78;;;3.40;;
49948;SDS011;35840;45.982;8.890;2022-11-14T15:29:57;3.72;;;3.33;;
49948;SDS011;35840;45.982;8.890;2022-11-14T15:32:50;5.30;;;3.95;;
49948;SDS011;35840;45.982;8.890;2022-11-14T15:35:39;7.22;;;5.18;;
49948;SDS011;35840;45.982;8.890;2022-11-14T15:38:24;7.57;;;4.50;;
49948;SDS011;35840;45.982;8.890;2022-11-14T15:41:30;4.30;;;3.90;;
49948;SDS011;35840;45.982;8.890;2022-11-14T15:44:34;4.95;;;4.07;;
49948;SDS011;35840;45.982;8.890;2022-11-14T15:47:38;4.97;;;4.03;;
49948;SDS011;35840;45.982;8.890;2022-11-14T15:50:26;6.13;;;4.28;;
49948;SDS011;35840;45.982;8.890;2022-11-14T15:56:04;5.28;;;4.45;;
49948;SDS011;35840;45.982;8.890;2022-11-14T15:58:49;5.32;;;4.07;;
49948;SDS011;35840;45.982;8.890;2022-11-14T16:01:35;5.50;;;4.43;;
49948;SDS011;35840;45.982;8.890;2022-11-14T16:04:21;5.30;;;4.80;;
49948;SDS011;35840;45.982;8.890;2022-11-14T16:07:12;6.03;;;5.00;;
49948;SDS011;35840;45.982;8.890;2022-11-14T16:09:59;6.10;;;4.55;;
49948;SDS011;35840;45.982;8.890;2022-11-14T16:12:44;4.85;;;4.03;;
49948;SDS011;35840;45.982;8.890;2022-11-14T16:15:36;5.80;;;4.38;;
49948;SDS011;35840;45.982;8.890;2022-11-14T16:18:22;4.60;;;3.55;;
49948;SDS011;35840;45.982;8.890;2022-11-14T16:21:09;8.23;;;4.50;;
49948;SDS011;35840;45.982;8.890;2022-11-14T16:23:58;5.80;;;4.80;;
49948;SDS011;35840;45.982;8.890;2022-11-14T16:26:43;10.73;;;5.68;;
49948;SDS011;35840;45.982;8.890;2022-11-14T16:29:29;12.07;;;9.27;;
49948;SDS011;35840;45.982;8.890;2022-11-14T16:32:14;13.82;;;9.95;;
49948;SDS011;35840;45.982;8.890;2022-11-14T16:35:00;14.75;;;9.10;;
49948;SDS011;35840;45.982;8.890;2022-11-14T16:37:46;12.30;;;8.00;;
49948;SDS011;35840;45.982;8.890;2022-11-14T16:40:31;8.82;;;5.35;;
49948;SDS011;35840;45.982;8.890;2022-11-14T16:43:17;8.00;;;5.50;;
49948;SDS011;35840;45.982;8.890;2022-11-14T16:46:03;5.50;;;4.63;;
49948;SDS011;35840;45.982;8.890;2022-11-14T16:48:50;7.82;;;5.10;;
49948;SDS011;35840;45.982;8.890;2022-11-14T16:51:35;11.82;;;5.63;;
49948;SDS011;35840;45.982;8.890;2022-11-14T16:54:36;7.97;;;5.57;;
49948;SDS011;35840;45.982;8.890;2022-11-14T16:57:22;10.00;;;6.28;;
49948;SDS011;35840;45.982;8.890;2022-11-14T17:00:08;11.35;;;6.72;;
49948;SDS011;35840;45.982;8.890;2022-11-14T17:02:56;11.05;;;7.38;;
49948;SDS011;35840;45.982;8.890;2022-11-14T17:05:44;12.73;;;8.98;;
49948;SDS011;35840;45.982;8.890;2022-11-14T17:08:31;14.57;;;8.25;;
49948;SDS011;35840;45.982;8.890;2022-11-14T17:11:16;8.37;;;6.80;;
49948;SDS011;35840;45.982;8.890;2022-11-14T17:14:02;13.15;;;8.38;;
49948;SDS011;35840;45.982;8.890;2022-11-14T17:16:47;9.80;;;6.70;;
49948;SDS011;35840;45.982;8.890;2022-11-14T17:19:33;15.32;;;7.13;;
49948;SDS011;35840;45.982;8.890;2022-11-14T17:22:18;12.83;;;8.10;;
49948;SDS011;35840;45.982;8.890;2022-11-14T17:25:06;12.13;;;7.93;;
49948;SDS011;35840;45.982;8.890;2022-11-14T17:27:51;34.67;;;16.95;;
49948;SDS011;35840;45.982;8.890;2022-11-14T17:30:40;26.90;;;14.85;;
49948;SDS011;35840;45.982;8.890;2022-11-14T17:33:26;22.35;;;13.50;;
49948;SDS011;35840;45.982;8.890;2022-11-14T17:36:11;23.20;;;13.13;;
49948;SDS011;35840;45.982;8.890;2022-11-14T17:38:58;13.65;;;9.27;;
49948;SDS011;35840;45.982;8.890;2022-11-14T17:41:43;16.55;;;7.30;;
49948;SDS011;35840;45.982;8.890;2022-11-14T17:44:28;11.90;;;8.13;;
49948;SDS011;35840;45.982;8.890;2022-11-14T17:47:14;9.83;;;7.13;;
49948;SDS011;35840;45.982;8.890;2022-11-14T17:49:59;11.18;;;7.32;;
49948;SDS011;35840;45.982;8.890;2022-11-14T17:52:44;9.55;;;6.63;;
49948;SDS011;35840;45.982;8.890;2022-11-14T17:55:29;11.90;;;8.33;;
49948;SDS011;35840;45.982;8.890;2022-11-14T17:58:15;11.07;;;8.15;;
49948;SDS011;35840;45.982;8.890;2022-11-14T18:01:00;13.33;;;8.17;;
49948;SDS011;35840;45.982;8.890;2022-11-14T18:03:46;11.00;;;8.00;;
49948;SDS011;35840;45.982;8.890;2022-11-14T18:06:32;12.43;;;8.30;;
49948;SDS011;35840;45.982;8.890;2022-11-14T18:09:17;13.43;;;7.75;;
49948;SDS011;35840;45.982;8.890;2022-11-14T18:12:02;9.67;;;7.43;;
49948;SDS011;35840;45.982;8.890;2022-11-14T18:14:48;10.98;;;7.53;;
49948;SDS011;35840;45.982;8.890;2022-11-14T18:17:33;9.60;;;6.80;;
49948;SDS011;35840;45.982;8.890;2022-11-14T18:20:18;9.02;;;6.50;;
49948;SDS011;35840;45.982;8.890;2022-11-14T18:23:03;13.05;;;8.15;;
49948;SDS011;35840;45.982;8.890;2022-11-14T18:25:49;12.15;;;8.23;;
49948;SDS011;35840;45.982;8.890;2022-11-14T18:28:34;9.90;;;7.43;;
49948;SDS011;35840;45.982;8.890;2022-11-14T18:31:20;16.45;;;10.68;;
49948;SDS011;35840;45.982;8.890;2022-11-14T18:34:05;9.55;;;7.85;;
49948;SDS011;35840;45.982;8.890;2022-11-14T18:36:50;11.27;;;7.85;;
49948;SDS011;35840;45.982;8.890;2022-11-14T18:39:36;9.40;;;7.20;;
49948;SDS011;35840;45.982;8.890;2022-11-14T18:42:21;11.32;;;8.32;;
49948;SDS011;35840;45.982;8.890;2022-11-14T18:45:06;12.55;;;8.20;;
49948;SDS011;35840;45.982;8.890;2022-11-14T18:47:52;11.65;;;7.93;;
49948;SDS011;35840;45.982;8.890;2022-11-14T18:50:37;20.80;;;15.20;;
49948;SDS011;35840;45.982;8.890;2022-11-14T18:53:23;13.90;;;11.38;;
49948;SDS011;35840;45.982;8.890;2022-11-14T18:56:12;13.57;;;10.33;;
49948;SDS011;35840;45.982;8.890;2022-11-14T18:58:59;16.05;;;10.27;;
49948;SDS011;35840;45.982;8.890;2022-11-14T19:01:44;12.85;;;9.27;;
49948;SDS011;35840;45.982;8.890;2022-11-14T19:04:29;9.85;;;7.07;;
49948;SDS011;35840;45.982;8.890;2022-11-14T19:07:15;10.00;;;7.22;;
49948;SDS011;35840;45.982;8.890;2022-11-14T19:10:00;9.85;;;7.18;;